createdAt,value
2022-12-19T00:01:37.879Z,78668.97
2022-12-19T00:04:09.811Z,78636.81
2022-12-19T00:06:43.945Z,78657.22
2022-12-19T00:09:14.562Z,78665.88
2022-12-19T00:11:44.475Z,78654.13
2022-12-19T00:14:13.333Z,78670.00
2022-12-19T00:16:42.358Z,78676.00
2022-12-19T00:19:12.842Z,78674.16
2022-12-19T00:21:41.689Z,78665.03
2022-12-19T00:24:20.724Z,78670.25
2022-12-19T00:26:51.192Z,78670.94
2022-12-19T00:29:21.476Z,78669.63
2022-12-19T00:31:50.331Z,78655.16
2022-12-19T00:34:19.042Z,78672.25
2022-12-19T00:36:48.059Z,78669.03
2022-12-19T00:39:17.051Z,78657.13
2022-12-19T00:41:47.453Z,78678.22
2022-12-19T00:44:17.011Z,78680.19
2022-12-19T00:46:52.440Z,78683.50
2022-12-19T00:49:22.972Z,78684.84
2022-12-19T00:51:51.514Z,78683.53
2022-12-19T00:54:20.387Z,78650.59
2022-12-19T00:56:49.778Z,78694.72
2022-12-19T00:59:23.945Z,78671.00
2022-12-19T01:01:58.594Z,78692.75
2022-12-19T01:04:29.224Z,78667.13
2022-12-19T01:07:01.959Z,78694.78
2022-12-19T01:09:36.285Z,78685.59
2022-12-19T01:12:25.336Z,78693.56
2022-12-19T01:15:02.939Z,78688.25
2022-12-19T01:17:44.311Z,78699.44
2022-12-19T01:20:16.666Z,78693.56
2022-12-19T01:22:47.960Z,78696.22
2022-12-19T01:25:16.942Z,78699.53
2022-12-19T01:27:45.798Z,78684.41
2022-12-19T01:30:15.600Z,78690.97
2022-12-19T01:32:45.919Z,78696.28
2022-12-19T01:35:21.408Z,78699.56
2022-12-19T01:38:07.278Z,78711.47
2022-12-19T01:40:38.538Z,78695.63
2022-12-19T01:43:13.478Z,78688.34
2022-12-19T01:45:45.966Z,78690.97
2022-12-19T01:48:43.261Z,78711.38
2022-12-19T01:51:21.168Z,78708.81
2022-12-19T01:53:55.656Z,78687.72
2022-12-19T01:56:30.641Z,78676.53
2022-12-19T01:59:06.526Z,78713.44
2022-12-19T02:01:50.873Z,78701.56
2022-12-19T02:04:31.958Z,78719.31
2022-12-19T02:07:15.536Z,78719.28
2022-12-19T02:09:56.866Z,78698.81
2022-12-19T02:12:42.662Z,78710.59
2022-12-19T02:15:15.341Z,78689.38
2022-12-19T02:17:58.870Z,78712.25
2022-12-19T02:21:07.612Z,78716.59
2022-12-19T02:24:03.966Z,78722.53
2022-12-19T02:26:53.060Z,78725.25
2022-12-19T02:29:51.630Z,78720.44
2022-12-19T02:33:01.582Z,78731.03
2022-12-19T02:35:37.765Z,78737.13
2022-12-19T02:38:33.465Z,78736.09
2022-12-19T02:41:15.192Z,78735.91
2022-12-19T02:43:56.824Z,78736.25
2022-12-19T02:46:31.026Z,78727.78
2022-12-19T02:49:00.469Z,78721.31
2022-12-19T02:51:29.127Z,78746.59
2022-12-19T02:53:58.376Z,78742.25
2022-12-19T02:56:43.205Z,78749.94
2022-12-19T02:59:48.390Z,78751.38
2022-12-19T03:02:30.733Z,78764.38
2022-12-19T03:05:38.121Z,78765.34
2022-12-19T03:08:11.696Z,78774.72
2022-12-19T03:10:59.985Z,78754.50
2022-12-19T03:13:35.148Z,78751.47
2022-12-19T03:16:05.889Z,78763.56
2022-12-19T03:18:35.397Z,78776.03
2022-12-19T03:21:03.934Z,78785.38
2022-12-19T03:23:33.462Z,78747.97
2022-12-19T03:26:09.558Z,78791.47
2022-12-19T03:29:12.236Z,78782.19
2022-12-19T03:31:43.338Z,78787.53
2022-12-19T03:34:38.164Z,78793.53
2022-12-19T03:37:13.782Z,78794.69
2022-12-19T03:39:46.776Z,78790.09
2022-12-19T03:42:36.421Z,78803.72
2022-12-19T03:45:08.055Z,78809.59
2022-12-19T03:47:52.560Z,78787.13
2022-12-19T03:50:25.633Z,78792.50
2022-12-19T03:53:14.490Z,78801.72
2022-12-19T03:55:56.145Z,78816.81
2022-12-19T03:58:39.236Z,78828.75
2022-12-19T04:01:09.136Z,78808.94
2022-12-19T04:03:38.324Z,78796.47
2022-12-19T04:06:08.463Z,78825.44
2022-12-19T04:08:38.283Z,78839.94
2022-12-19T04:11:15.026Z,78823.94
2022-12-19T04:14:08.191Z,78845.63
2022-12-19T04:17:08.971Z,78822.34
2022-12-19T04:19:49.627Z,78844.00
2022-12-19T04:22:26.709Z,78853.81
2022-12-19T04:24:57.120Z,78855.09
2022-12-19T04:27:32.092Z,78856.88
2022-12-19T04:30:03.783Z,78839.63
2022-12-19T04:32:37.997Z,78833.81
2022-12-19T04:35:07.856Z,78839.59
2022-12-19T04:37:36.770Z,78830.34
2022-12-19T04:40:07.421Z,78863.69
2022-12-19T04:42:36.690Z,78862.28
2022-12-19T04:45:07.031Z,78851.75
2022-12-19T04:47:36.683Z,78833.34
2022-12-19T04:50:06.740Z,78868.16
2022-12-19T04:52:36.213Z,78859.44
2022-12-19T04:55:05.149Z,78822.09
2022-12-19T04:57:34.380Z,78824.31
2022-12-19T05:00:04.879Z,78847.84
2022-12-19T05:02:34.277Z,78872.34
2022-12-19T05:05:03.557Z,78860.72
2022-12-19T05:07:32.935Z,78861.59
2022-12-19T05:10:01.671Z,78826.84
2022-12-19T05:12:31.407Z,78838.34
2022-12-19T05:15:00.143Z,78873.25
2022-12-19T05:17:28.996Z,78859.66
2022-12-19T05:19:57.594Z,78856.13
2022-12-19T05:22:30.201Z,78844.47
2022-12-19T05:24:59.397Z,78852.00
2022-12-19T05:27:31.704Z,78860.97
2022-12-19T05:30:00.685Z,78856.69
2022-12-19T05:32:33.350Z,78858.13
2022-12-19T05:35:02.436Z,78829.56
2022-12-19T05:37:31.124Z,78852.75
2022-12-19T05:39:59.973Z,78848.69
2022-12-19T05:42:28.697Z,78849.97
2022-12-19T05:44:57.835Z,78848.97
2022-12-19T05:47:26.488Z,78779.72
2022-12-19T05:49:55.464Z,78857.72
2022-12-19T05:52:25.548Z,78864.69
2022-12-19T05:54:54.452Z,78828.28
2022-12-19T05:57:23.783Z,78827.94
2022-12-19T05:59:53.101Z,78848.50
2022-12-19T06:02:22.486Z,78831.63
2022-12-19T06:04:51.488Z,78827.22
2022-12-19T06:07:21.263Z,78837.38
2022-12-19T06:09:51.205Z,78831.47
2022-12-19T06:12:20.257Z,78828.72
2022-12-19T06:14:49.126Z,78832.69
2022-12-19T06:17:20.791Z,78819.97
2022-12-19T06:19:50.370Z,78811.75
2022-12-19T06:22:19.385Z,78813.34
2022-12-19T06:24:48.895Z,78824.53
2022-12-19T06:27:17.738Z,78825.97
2022-12-19T06:29:47.558Z,78814.94
2022-12-19T06:32:16.470Z,78819.75
2022-12-19T06:35:03.609Z,78792.00
2022-12-19T06:37:33.102Z,78810.63
2022-12-19T06:40:01.926Z,78797.75
2022-12-19T06:42:31.982Z,78809.31
2022-12-19T06:45:01.003Z,78829.16
2022-12-19T06:47:29.796Z,78800.75
2022-12-19T06:49:58.479Z,78802.50
2022-12-19T06:52:27.392Z,78802.38
2022-12-19T06:54:56.908Z,78812.31
2022-12-19T06:57:26.021Z,78790.09
2022-12-19T06:59:55.624Z,78811.34
2022-12-19T07:02:31.176Z,78799.97
2022-12-19T07:05:05.202Z,78792.59
2022-12-19T07:07:34.743Z,78801.25
2022-12-19T07:10:04.780Z,78794.38
2022-12-19T07:12:34.942Z,78790.44
2022-12-19T07:15:03.878Z,78796.56
2022-12-19T07:17:32.758Z,78781.41
2022-12-19T07:20:05.244Z,78782.69
2022-12-19T07:22:37.500Z,78791.41
2022-12-19T07:25:07.478Z,78776.50
2022-12-19T07:27:36.863Z,78759.06
2022-12-19T07:30:09.451Z,78752.81
2022-12-19T07:32:38.200Z,78767.41
2022-12-19T07:35:08.508Z,78754.47
2022-12-19T07:37:38.149Z,78747.16
2022-12-19T07:40:07.610Z,78771.28
2022-12-19T07:42:36.533Z,78739.97
2022-12-19T07:45:05.316Z,78760.09
2022-12-19T07:47:34.939Z,78736.81
2022-12-19T07:50:03.917Z,78753.88
2022-12-19T07:52:33.570Z,78760.53
2022-12-19T07:55:02.869Z,78742.44
2022-12-19T07:57:31.922Z,78743.97
2022-12-19T08:00:00.598Z,78739.16
2022-12-19T08:02:29.965Z,78749.63
2022-12-19T08:04:59.669Z,78739.00
2022-12-19T08:07:29.224Z,78748.16
2022-12-19T08:09:57.893Z,78751.34
2022-12-19T08:12:27.900Z,78744.38
2022-12-19T08:14:57.460Z,78737.53
2022-12-19T08:17:27.172Z,78732.41
2022-12-19T08:19:55.985Z,78742.34
2022-12-19T08:22:24.902Z,78737.81
2022-12-19T08:24:53.898Z,78726.66
2022-12-19T08:27:22.764Z,78712.28
2022-12-19T08:29:52.105Z,78716.94
2022-12-19T08:32:22.024Z,78726.56
2022-12-19T08:34:51.785Z,78717.91
2022-12-19T08:37:20.743Z,78724.66
2022-12-19T08:39:50.978Z,78725.66
2022-12-19T08:42:19.709Z,78726.78
2022-12-19T08:44:48.861Z,78701.41
2022-12-19T08:47:17.661Z,78713.19
2022-12-19T08:49:46.630Z,78715.28
2022-12-19T08:52:15.302Z,78712.50
2022-12-19T08:54:46.597Z,78692.56
2022-12-19T08:57:34.906Z,78735.59
2022-12-19T09:00:07.221Z,78729.41
2022-12-19T09:02:37.219Z,78704.94
2022-12-19T09:06:05.461Z,78723.63
2022-12-19T09:07:55.383Z,78718.16
2022-12-19T09:10:24.028Z,78719.75
2022-12-19T09:12:57.699Z,78699.91
2022-12-19T09:15:27.157Z,78708.66
2022-12-19T09:17:55.817Z,78719.09
2022-12-19T09:20:24.740Z,78713.47
2022-12-19T09:22:53.624Z,78725.34
2022-12-19T09:25:22.417Z,78686.97
2022-12-19T09:28:26.514Z,78712.44
2022-12-19T09:30:40.404Z,78721.81
2022-12-19T09:33:09.026Z,78716.25
2022-12-19T09:35:38.357Z,78677.84
2022-12-19T09:38:06.879Z,78700.69
2022-12-19T09:41:09.313Z,78690.97
2022-12-19T09:44:05.083Z,78713.34
2022-12-19T09:46:56.538Z,78711.69
2022-12-19T09:49:46.916Z,78679.06
2022-12-19T09:52:41.991Z,78717.69
2022-12-19T09:55:23.701Z,78708.59
2022-12-19T09:58:10.686Z,78704.78
2022-12-19T10:00:46.436Z,78711.19
2022-12-19T10:04:07.070Z,78688.56
2022-12-19T10:07:18.626Z,78695.63
2022-12-19T10:10:58.079Z,78690.03
2022-12-19T10:12:51.412Z,78701.09
2022-12-19T10:16:00.323Z,78699.53
2022-12-19T10:19:02.964Z,78698.97
2022-12-19T10:22:16.244Z,78675.91
2022-12-19T10:24:38.081Z,78690.72
2022-12-19T10:27:27.345Z,78649.19
2022-12-19T10:30:16.980Z,78689.81
2022-12-19T10:33:21.031Z,78682.94
2022-12-19T10:36:01.624Z,78664.53
2022-12-19T10:38:40.265Z,78686.88
2022-12-19T10:41:23.149Z,78680.91
2022-12-19T10:43:59.958Z,78682.34
2022-12-19T10:46:42.850Z,78668.00
2022-12-19T10:49:19.781Z,78689.94
2022-12-19T10:51:57.530Z,78685.72
2022-12-19T10:54:38.525Z,78679.72
2022-12-19T10:57:26.083Z,78682.66
2022-12-19T11:00:06.591Z,78680.97
2022-12-19T11:02:44.495Z,78674.06
2022-12-19T11:05:26.161Z,78680.81
2022-12-19T11:08:08.674Z,78658.56
2022-12-19T11:13:22.957Z,78675.03
2022-12-19T11:18:50.141Z,78668.44
2022-12-19T11:23:47.269Z,78627.53
2022-12-19T11:29:18.089Z,78667.41
2022-12-19T11:30:09.729Z,78671.69
2022-12-19T11:30:41.630Z,78676.47
2022-12-19T11:30:48.176Z,78674.75
2022-12-19T11:34:29.713Z,78642.13
2022-12-19T11:37:24.973Z,78664.06
2022-12-19T11:40:03.310Z,78671.44
2022-12-19T11:43:10.869Z,78672.22
2022-12-19T11:45:51.055Z,78657.38
2022-12-19T11:48:38.696Z,78677.91
2022-12-19T11:51:19.588Z,78670.75
2022-12-19T11:54:05.955Z,78667.59
2022-12-19T11:56:36.156Z,78648.06
2022-12-19T11:59:37.049Z,78622.53
2022-12-19T12:02:29.999Z,78665.38
2022-12-19T12:05:07.999Z,78668.03
2022-12-19T12:09:20.782Z,78672.75
2022-12-19T12:16:11.670Z,78629.47
2022-12-19T12:23:31.069Z,78672.22
2022-12-19T12:31:16.284Z,78655.13
2022-12-19T12:31:31.888Z,78662.47
2022-12-19T12:31:53.069Z,78674.34
2022-12-19T12:31:58.469Z,78678.41
2022-12-19T12:32:02.268Z,78668.44
2022-12-19T12:35:33.432Z,78666.59
2022-12-19T12:38:29.920Z,78679.78
2022-12-19T12:41:14.098Z,78662.78
2022-12-19T12:44:03.097Z,78670.75
2022-12-19T12:46:51.184Z,78685.91
2022-12-19T12:49:41.898Z,78687.22
2022-12-19T12:52:21.113Z,78678.13
2022-12-19T12:54:51.624Z,78682.75
2022-12-19T12:57:30.138Z,78694.03
2022-12-19T13:00:26.889Z,78644.84
2022-12-19T13:03:17.717Z,78699.53
2022-12-19T13:06:07.310Z,78701.53
2022-12-19T13:09:18.104Z,78698.25
2022-12-19T13:12:21.719Z,78678.59
2022-12-19T13:17:51.277Z,78707.78
2022-12-19T13:20:20.263Z,78704.56
2022-12-19T13:22:59.355Z,78704.63
2022-12-19T13:25:28.237Z,78706.69
2022-12-19T13:28:24.432Z,78686.31
2022-12-19T13:31:18.674Z,78699.50
2022-12-19T13:33:55.843Z,78706.16
2022-12-19T13:39:50.026Z,78714.78
2022-12-19T13:40:11.147Z,78710.84
2022-12-19T13:43:22.684Z,78706.88
2022-12-19T13:45:55.904Z,78705.59
2022-12-19T13:48:34.542Z,78694.34
2022-12-19T13:51:14.465Z,78716.13
2022-12-19T13:53:45.316Z,78720.06
2022-12-19T13:56:17.212Z,78719.44
2022-12-19T13:58:56.754Z,78721.41
2022-12-19T14:01:33.202Z,78687.09
2022-12-19T14:04:29.727Z,78702.28
2022-12-19T14:07:36.912Z,78705.56
2022-12-19T14:11:29.738Z,78723.34
2022-12-19T14:13:47.550Z,78686.41
2022-12-19T14:16:15.381Z,78723.34
2022-12-19T14:18:51.083Z,78711.44
2022-12-19T14:22:05.677Z,78731.88
2022-12-19T14:24:13.669Z,78729.22
2022-12-19T14:28:21.003Z,78704.13
2022-12-19T14:30:28.572Z,78730.53
2022-12-19T14:33:43.989Z,78688.97
2022-12-19T14:36:08.398Z,78731.22
2022-12-19T14:39:23.113Z,78714.69
2022-12-19T14:41:48.335Z,78743.75
2022-12-19T14:54:14.692Z,78728.53
2022-12-19T14:54:16.317Z,78744.38
2022-12-19T14:54:23.671Z,78754.22
2022-12-19T14:54:37.413Z,78750.28
2022-12-19T14:59:28.412Z,78734.44
2022-12-19T15:02:02.951Z,78750.94
2022-12-19T15:04:55.004Z,78740.41
2022-12-19T15:07:30.721Z,78740.41
2022-12-19T15:11:07.925Z,78705.41
2022-12-19T15:14:57.536Z,78713.31
2022-12-19T15:16:30.818Z,78750.25
2022-12-19T15:19:02.979Z,78740.31
2022-12-19T15:21:32.721Z,78705.31
2022-12-19T15:24:01.304Z,78753.47
2022-12-19T15:26:47.652Z,78720.47
2022-12-19T15:29:21.829Z,78760.00
2022-12-19T15:31:51.264Z,78748.09
2022-12-19T15:34:37.949Z,78751.41
2022-12-19T15:37:11.012Z,78749.34
2022-12-19T15:39:44.504Z,78730.91
2022-12-19T15:42:25.784Z,78736.16
2022-12-19T15:45:01.319Z,78740.78
2022-12-19T15:47:38.844Z,78734.91
2022-12-19T15:50:21.725Z,78744.78
2022-12-19T15:52:51.447Z,78720.34
2022-12-19T15:55:21.601Z,78719.72
2022-12-19T15:58:00.543Z,78699.91
2022-12-19T16:00:37.983Z,78736.31
2022-12-19T16:03:23.298Z,78727.78
2022-12-19T16:05:54.380Z,78739.75
2022-12-19T16:08:27.126Z,78738.47
2022-12-19T16:11:01.774Z,78712.75
2022-12-19T16:13:37.252Z,78737.16
2022-12-19T16:16:15.015Z,78727.28
2022-12-19T16:18:46.649Z,78741.78
2022-12-19T16:21:33.754Z,78711.44
2022-12-19T16:24:03.874Z,78727.94
2022-12-19T16:26:44.912Z,78733.22
2022-12-19T16:29:21.024Z,78733.84
2022-12-19T16:31:50.484Z,78719.38
2022-12-19T16:34:23.406Z,78735.19
2022-12-19T16:36:55.157Z,78698.88
2022-12-19T16:39:26.932Z,78739.81
2022-12-19T16:41:55.809Z,78729.25
2022-12-19T16:44:34.466Z,78722.66
2022-12-19T16:47:07.424Z,78706.19
2022-12-19T16:49:36.629Z,78710.78
2022-12-19T16:52:05.483Z,78736.47
2022-12-19T16:54:45.211Z,78740.41
2022-12-19T16:57:25.945Z,78722.56
2022-12-19T16:59:56.377Z,78742.34
2022-12-19T17:02:46.522Z,78739.06
2022-12-19T17:05:24.763Z,78729.19
2022-12-19T17:07:58.865Z,78711.38
2022-12-19T17:10:34.974Z,78713.94
2022-12-19T17:13:04.627Z,78721.84
2022-12-19T17:15:37.468Z,78729.03
2022-12-19T17:18:26.730Z,78738.28
2022-12-19T17:20:57.248Z,78709.22
2022-12-19T17:23:33.566Z,78741.59
2022-12-19T17:26:17.466Z,78731.00
2022-12-19T17:28:50.492Z,78729.66
2022-12-19T17:31:27.052Z,78728.97
2022-12-19T17:33:59.669Z,78703.78
2022-12-19T17:36:37.629Z,78743.38
2022-12-19T17:39:29.779Z,78737.53
2022-12-19T17:42:22.112Z,78720.47
2022-12-19T17:44:52.129Z,78682.88
2022-12-19T17:47:21.920Z,78701.38
2022-12-19T17:49:50.933Z,78689.47
2022-12-19T17:52:20.966Z,78730.38
2022-12-19T17:54:50.731Z,78720.56
2022-12-19T17:57:21.061Z,78727.00
2022-12-19T17:59:50.008Z,78719.72
2022-12-19T18:02:27.799Z,78726.28
2022-12-19T18:04:56.721Z,78707.78
2022-12-19T18:07:25.509Z,78707.09
2022-12-19T18:09:54.573Z,78719.03
2022-12-19T18:12:23.206Z,78711.72
2022-12-19T18:14:52.314Z,78711.78
2022-12-19T18:17:26.097Z,78719.00
2022-12-19T18:19:55.352Z,78719.63
2022-12-19T18:22:24.262Z,78719.63
2022-12-19T18:24:53.862Z,78722.22
2022-12-19T18:27:22.672Z,78721.47
2022-12-19T18:29:51.692Z,78675.28
2022-12-19T18:32:21.697Z,78712.91
2022-12-19T18:34:51.265Z,78668.06
2022-12-19T18:37:20.007Z,78705.63
2022-12-19T18:39:50.060Z,78694.44
2022-12-19T18:42:21.595Z,78715.56
2022-12-19T18:44:50.664Z,78706.97
2022-12-19T18:47:24.528Z,78710.97
2022-12-19T18:49:53.729Z,78709.59
2022-12-19T18:52:22.309Z,78657.47
2022-12-19T18:54:51.065Z,78673.25
2022-12-19T18:57:19.895Z,78674.56
2022-12-19T18:59:49.389Z,78691.69
2022-12-19T19:02:28.879Z,78688.41
2022-12-19T19:04:59.825Z,78699.66
2022-12-19T19:07:28.967Z,78682.56
2022-12-19T19:09:57.661Z,78627.63
2022-12-19T19:12:41.587Z,78673.84
2022-12-19T19:15:11.964Z,78689.03
2022-12-19T19:17:41.919Z,78674.47
2022-12-19T19:20:10.880Z,78669.84
2022-12-19T19:22:39.561Z,78655.31
2022-12-19T19:25:10.149Z,78693.63
2022-12-19T19:27:40.342Z,78661.28
2022-12-19T19:30:10.809Z,78654.00
2022-12-19T19:32:45.640Z,78669.19
2022-12-19T19:35:19.665Z,78671.28
2022-12-19T19:37:51.223Z,78629.13
2022-12-19T19:40:20.824Z,78674.03
2022-12-19T19:42:49.447Z,78639.00
2022-12-19T19:45:18.199Z,78661.44
2022-12-19T19:47:46.907Z,78656.81
2022-12-19T19:50:15.750Z,78666.78
2022-12-19T19:52:44.441Z,78656.88
2022-12-19T19:55:15.480Z,78660.78
2022-12-19T19:57:44.358Z,78663.41
2022-12-19T20:00:13.628Z,78668.00
2022-12-19T20:02:42.970Z,78663.41
2022-12-19T20:05:12.000Z,78613.94
2022-12-19T20:07:40.841Z,78643.03
2022-12-19T20:10:10.999Z,78629.19
2022-12-19T20:12:40.048Z,78632.50
2022-12-19T20:15:09.331Z,78646.97
2022-12-19T20:17:38.130Z,78590.94
2022-12-19T20:20:08.738Z,78640.97
2022-12-19T20:22:37.711Z,78629.19
2022-12-19T20:25:06.535Z,78648.97
2022-12-19T20:27:35.395Z,78653.59
2022-12-19T20:30:05.318Z,78616.03
2022-12-19T20:32:34.549Z,78618.78
2022-12-19T20:35:03.607Z,78628.06
2022-12-19T20:37:33.940Z,78635.28
2022-12-19T20:40:02.643Z,78634.66
2022-12-19T20:42:31.429Z,78644.44
2022-12-19T20:45:00.042Z,78653.00
2022-12-19T20:47:29.870Z,78642.50
2022-12-19T20:49:58.460Z,78639.84
2022-12-19T20:52:27.304Z,78631.97
2022-12-19T20:54:55.938Z,78627.28
2022-12-19T20:57:24.692Z,78629.22
2022-12-19T20:59:53.296Z,78637.69
2022-12-19T21:02:22.269Z,78635.09
2022-12-19T21:04:51.143Z,78634.41
2022-12-19T21:07:19.944Z,78628.53
2022-12-19T21:09:51.030Z,78606.72
2022-12-19T21:12:19.795Z,78649.03
2022-12-19T21:14:48.886Z,78653.69
2022-12-19T21:17:17.746Z,78641.19
2022-12-19T21:19:46.759Z,78641.78
2022-12-19T21:22:15.587Z,78619.41
2022-12-19T21:24:44.193Z,78612.69
2022-12-19T21:27:12.964Z,78632.44
2022-12-19T21:29:41.530Z,78648.25
2022-12-19T21:32:16.818Z,78615.88
2022-12-19T21:34:47.555Z,78629.78
2022-12-19T21:37:16.382Z,78631.16
2022-12-19T21:39:45.365Z,78635.78
2022-12-19T21:42:14.031Z,78652.25
2022-12-19T21:44:42.831Z,78583.69
2022-12-19T21:47:11.460Z,78635.78
2022-12-19T21:49:40.748Z,78615.34
2022-12-19T21:52:09.715Z,78648.31
2022-12-19T21:54:38.587Z,78631.09
2022-12-19T21:57:07.157Z,78610.00
2022-12-19T21:59:36.003Z,78628.34
2022-12-19T22:02:04.709Z,78626.28
2022-12-19T22:04:33.517Z,78530.63
2022-12-19T22:07:06.239Z,78631.56
2022-12-19T22:09:35.454Z,78640.81
2022-12-19T22:12:04.082Z,78613.78
2022-12-19T22:14:32.957Z,78630.97
2022-12-19T22:17:01.575Z,78621.72
2022-12-19T22:19:30.483Z,78628.41
2022-12-19T22:21:59.084Z,78603.38
2022-12-19T22:24:27.891Z,78598.00
2022-12-19T22:26:56.513Z,78623.69
2022-12-19T22:29:25.627Z,78634.25
2022-12-19T22:31:54.360Z,78609.13
2022-12-19T22:34:23.505Z,78647.38
2022-12-19T22:36:52.127Z,78594.59
2022-12-19T22:39:23.625Z,78636.81
2022-12-19T22:41:52.632Z,78597.84
2022-12-19T22:44:23.988Z,78608.41
2022-12-19T22:46:53.759Z,78633.56
2022-12-19T22:49:22.479Z,78615.09
2022-12-19T22:51:51.287Z,78575.50
2022-12-19T22:54:19.874Z,78622.38
2022-12-19T22:56:52.544Z,78609.09
2022-12-19T22:59:21.239Z,78603.16
2022-12-19T23:01:49.977Z,78629.56
2022-12-19T23:04:19.352Z,78609.06
2022-12-19T23:06:48.201Z,78576.09
2022-12-19T23:09:18.995Z,78602.41
2022-12-19T23:11:50.355Z,78609.66
2022-12-19T23:14:20.846Z,78602.41
2022-12-19T23:16:50.072Z,78626.75
2022-12-19T23:19:19.556Z,78537.03
2022-12-19T23:21:48.519Z,78622.78
2022-12-19T23:24:17.341Z,78581.22
2022-12-19T23:26:46.233Z,78604.91
2022-12-19T23:29:16.960Z,78618.78
2022-12-19T23:31:48.077Z,78595.66
2022-12-19T23:34:17.870Z,78620.06
2022-12-19T23:39:36.056Z,78604.78
2022-12-19T23:42:04.908Z,78609.50
2022-12-19T23:44:33.907Z,78591.06
2022-12-19T23:47:04.048Z,78614.75
2022-12-19T23:49:34.459Z,78566.59
2022-12-19T23:52:03.178Z,78600.94
2022-12-19T23:54:32.247Z,78602.91
2022-12-19T23:57:01.184Z,78604.28
2022-12-19T23:59:29.926Z,78588.47
